Time;durP1;ratioP1;P1;durP2;ratioP2;P2;SDS_P1;SDS_P2;PMS_P1;PMS_P2;Temp;Humidity;BMP_temperature;BMP_pressure;BME280_temperature;BME280_humidity;BME280_pressure;Samples;Min_cycle;Max_cycle;Signal;HPM_P1;HPM_P2
2022/10/22 00:02:18;;;;;;;6.50;5.07;;;16.60;99.90;;;;;;4921103;29;20458;-83
2022/10/22 00:04:51;;;;;;;9.03;4.80;;;16.50;99.90;;;;;;4919881;29;20482;-84
2022/10/22 00:07:21;;;;;;;5.60;4.40;;;16.60;99.90;;;;;;4977958;23;20446;-83
2022/10/22 00:09:56;;;;;;;9.50;4.20;;;16.60;99.90;;;;;;4923718;29;20723;-84
2022/10/22 00:12:28;;;;;;;4.63;4.17;;;16.60;99.90;;;;;;4918058;29;20451;-84
2022/10/22 00:15:11;;;;;;;6.90;4.73;;;16.60;99.90;;;;;;4929937;29;20513;-82
2022/10/22 00:17:55;;;;;;;4.90;3.43;;;16.70;99.90;;;;;;4929537;29;20490;-84
2022/10/22 00:20:38;;;;;;;5.53;4.83;;;16.70;99.90;;;;;;4932562;29;20447;-84
2022/10/22 00:23:10;;;;;;;6.27;4.63;;;16.60;99.90;;;;;;4931126;29;20530;-84
2022/10/22 00:25:39;;;;;;;5.83;4.30;;;16.60;99.90;;;;;;4927647;29;20469;-84
2022/10/22 00:28:12;;;;;;;5.60;4.43;;;16.40;99.90;;;;;;4919369;29;20479;-84
2022/10/22 00:30:46;;;;;;;5.60;4.20;;;16.50;99.90;;;;;;4914040;29;20461;-84
2022/10/22 00:33:14;;;;;;;6.30;4.50;;;16.60;99.90;;;;;;4929323;29;20486;-85
2022/10/22 00:35:46;;;;;;;6.80;4.60;;;16.70;99.90;;;;;;4916861;29;20495;-82
2022/10/22 00:38:17;;;;;;;7.37;4.37;;;16.70;99.90;;;;;;4923915;29;20522;-83
2022/10/22 00:41:08;;;;;;;7.47;4.53;;;16.70;99.90;;;;;;4925325;29;20479;-80
2022/10/22 00:44:11;;;;;;;9.67;4.10;;;16.70;99.90;;;;;;4930852;29;21158;-82
2022/10/22 00:46:49;;;;;;;8.80;4.40;;;16.40;99.90;;;;;;4918340;29;20465;-84
2022/10/22 00:49:25;;;;;;;4.60;4.20;;;16.60;99.90;;;;;;4919828;29;20490;-84
2022/10/22 00:51:55;;;;;;;5.40;3.90;;;16.60;99.90;;;;;;4924539;29;20477;-83
2022/10/22 00:54:31;;;;;;;4.30;3.90;;;16.60;99.90;;;;;;4925121;29;20523;-83
2022/10/22 00:57:07;;;;;;;6.60;4.70;;;16.70;99.90;;;;;;4925760;29;20521;-82
2022/10/22 00:59:43;;;;;;;5.00;4.03;;;16.70;99.90;;;;;;4940862;29;20561;-82
2022/10/22 01:02:14;;;;;;;6.40;4.00;;;16.50;99.90;;;;;;4925854;29;20446;-84
2022/10/22 01:04:47;;;;;;;5.43;4.60;;;16.60;99.90;;;;;;4917171;29;20462;-84
2022/10/22 01:07:31;;;;;;;6.03;4.83;;;16.60;99.90;;;;;;4917777;29;20511;-84
2022/10/22 01:10:10;;;;;;;5.60;4.13;;;16.40;99.90;;;;;;4919218;29;20490;-84
2022/10/22 01:13:04;;;;;;;5.53;4.80;;;16.50;99.90;;;;;;4919048;29;20470;-84
2022/10/22 01:15:58;;;;;;;8.40;4.90;;;16.50;99.90;;;;;;4919846;29;20483;-84
2022/10/22 01:18:49;;;;;;;5.77;3.93;;;16.60;99.90;;;;;;4922664;29;20477;-85
2022/10/22 01:21:54;;;;;;;5.60;4.90;;;16.60;99.90;;;;;;4920315;29;20494;-84
2022/10/22 01:24:57;;;;;;;6.20;4.10;;;16.50;99.90;;;;;;4920902;29;20475;-84
2022/10/22 01:27:53;;;;;;;7.73;4.27;;;16.30;99.90;;;;;;4928422;29;21104;-84
2022/10/22 01:30:27;;;;;;;5.80;4.37;;;16.30;99.90;;;;;;4919972;29;20471;-84
2022/10/22 01:33:12;;;;;;;7.37;3.77;;;16.50;99.90;;;;;;4911967;29;20517;-83
2022/10/22 01:35:51;;;;;;;9.33;4.57;;;16.50;99.90;;;;;;4913343;29;20474;-85
2022/10/22 01:38:26;;;;;;;6.33;4.60;;;16.60;99.90;;;;;;4927384;29;20597;-84
2022/10/22 01:41:03;;;;;;;7.03;4.10;;;16.50;99.90;;;;;;4915194;29;20485;-83
2022/10/22 01:43:33;;;;;;;5.03;4.53;;;16.40;99.90;;;;;;4918111;29;20497;-82
2022/10/22 01:46:07;;;;;;;6.57;5.70;;;16.50;99.90;;;;;;4934361;29;20459;-85
2022/10/22 01:49:11;;;;;;;6.17;4.13;;;16.70;99.90;;;;;;4933273;29;20476;-84
2022/10/22 01:51:58;;;;;;;6.30;4.30;;;16.50;99.90;;;;;;4911633;29;20471;-82
2022/10/22 01:54:50;;;;;;;6.90;4.33;;;16.50;99.90;;;;;;4895300;29;20486;-83
2022/10/22 01:57:32;;;;;;;7.03;5.00;;;16.60;99.90;;;;;;4886370;29;20463;-83
2022/10/22 02:00:12;;;;;;;7.53;4.60;;;16.70;99.90;;;;;;4922757;29;20482;-84
2022/10/22 02:03:01;;;;;;;6.67;5.37;;;16.60;99.90;;;;;;4911578;29;20458;-82
2022/10/22 02:05:42;;;;;;;5.70;4.50;;;16.60;99.90;;;;;;4910729;29;20467;-82
2022/10/22 02:08:13;;;;;;;5.67;4.40;;;16.60;99.90;;;;;;4924149;29;20539;-84
2022/10/22 02:10:47;;;;;;;6.53;4.60;;;16.50;99.90;;;;;;4910575;29;20478;-84
2022/10/22 02:13:20;;;;;;;7.70;4.70;;;16.50;99.90;;;;;;4923191;29;20486;-83
2022/10/22 02:15:51;;;;;;;4.90;4.30;;;16.50;99.90;;;;;;4924952;29;20458;-84
2022/10/22 02:18:27;;;;;;;7.90;4.43;;;16.60;99.90;;;;;;4909764;29;20969;-83
2022/10/22 02:21:00;;;;;;;6.70;5.23;;;16.60;99.90;;;;;;4909290;29;20495;-83
2022/10/22 02:23:30;;;;;;;6.60;4.60;;;16.50;99.90;;;;;;4910039;29;20463;-83
2022/10/22 02:26:31;;;;;;;5.20;3.87;;;16.50;99.90;;;;;;4909980;29;20500;-83
2022/10/22 02:29:17;;;;;;;6.67;4.83;;;16.50;99.90;;;;;;4904714;29;20499;-84
2022/10/22 02:31:50;;;;;;;6.43;5.00;;;16.50;99.90;;;;;;4908421;29;20471;-84
2022/10/22 02:34:31;;;;;;;7.10;4.90;;;16.30;99.90;;;;;;4909509;29;21250;-84
2022/10/22 02:37:05;;;;;;;5.03;4.60;;;16.30;99.90;;;;;;4907864;29;20565;-83
2022/10/22 02:39:35;;;;;;;4.80;4.13;;;16.20;99.90;;;;;;4907367;29;20446;-84
2022/10/22 02:42:14;;;;;;;8.20;4.60;;;16.00;99.90;;;;;;4911333;29;20465;-83
2022/10/22 02:44:44;;;;;;;5.90;4.80;;;16.20;99.90;;;;;;4905870;29;20538;-83
2022/10/22 02:47:15;;;;;;;5.33;4.17;;;16.30;99.90;;;;;;4904426;29;20499;-83
2022/10/22 02:49:44;;;;;;;8.80;4.87;;;16.40;99.90;;;;;;4917476;29;20546;-83
2022/10/22 02:52:15;;;;;;;5.50;4.10;;;16.30;99.90;;;;;;4911618;28;20466;-84
2022/10/22 02:54:43;;;;;;;3.97;3.53;;;16.20;99.90;;;;;;4910498;29;20510;-83
2022/10/22 02:57:12;;;;;;;5.73;4.10;;;16.10;99.90;;;;;;4908762;29;20486;-84
2022/10/22 02:59:45;;;;;;;9.20;4.70;;;16.10;99.90;;;;;;4909025;29;20464;-83
2022/10/22 03:02:19;;;;;;;9.93;4.97;;;16.20;99.90;;;;;;4910718;29;20601;-84
2022/10/22 03:04:49;;;;;;;5.77;4.63;;;16.10;99.90;;;;;;4910929;29;20835;-81
2022/10/22 03:07:22;;;;;;;8.60;4.23;;;16.10;99.90;;;;;;4907351;29;20459;-84
2022/10/22 03:09:55;;;;;;;5.07;4.50;;;16.20;99.90;;;;;;4908074;29;20461;-83
2022/10/22 03:12:30;;;;;;;5.33;4.80;;;16.20;99.90;;;;;;4907986;29;20494;-84
2022/10/22 03:15:06;;;;;;;5.43;4.87;;;16.20;99.90;;;;;;4891215;29;20510;-83
2022/10/22 03:17:33;;;;;;;6.37;4.67;;;16.30;99.90;;;;;;4906486;29;21343;-81
2022/10/22 03:20:10;;;;;;;5.87;5.10;;;16.40;99.90;;;;;;4922379;29;21695;-84
2022/10/22 03:22:44;;;;;;;8.03;5.03;;;16.30;99.90;;;;;;4907065;29;20482;-83
2022/10/22 03:25:18;;;;;;;6.30;4.17;;;16.20;99.90;;;;;;4920558;29;20473;-83
2022/10/22 03:27:49;;;;;;;8.63;5.40;;;16.10;99.90;;;;;;4907790;29;20494;-83
2022/10/22 03:30:22;;;;;;;10.40;5.97;;;16.30;99.90;;;;;;4910056;29;20454;-83
2022/10/22 03:32:52;;;;;;;6.70;4.77;;;16.20;99.90;;;;;;4911428;29;20466;-83
2022/10/22 03:35:54;;;;;;;6.70;5.20;;;16.20;99.90;;;;;;4906996;29;21191;-83
2022/10/22 03:38:26;;;;;;;8.20;5.20;;;16.20;99.90;;;;;;4910267;29;20486;-82
2022/10/22 03:41:14;;;;;;;6.13;5.13;;;16.30;99.90;;;;;;4907396;29;20451;-83
2022/10/22 03:43:48;;;;;;;11.13;5.50;;;16.20;99.90;;;;;;4922559;29;20474;-82
2022/10/22 03:46:22;;;;;;;6.97;4.47;;;16.20;99.90;;;;;;4912047;29;20450;-82
2022/10/22 03:49:11;;;;;;;7.43;5.10;;;16.10;99.90;;;;;;4923151;29;20553;-84
2022/10/22 03:51:57;;;;;;;6.60;5.00;;;16.00;99.90;;;;;;4908448;29;20514;-85
2022/10/22 03:54:32;;;;;;;8.17;4.70;;;16.10;99.90;;;;;;4911009;29;20493;-83
2022/10/22 03:57:03;;;;;;;5.40;4.70;;;16.10;99.90;;;;;;4912534;29;20933;-83
2022/10/22 03:59:50;;;;;;;6.80;4.87;;;16.20;99.90;;;;;;4915977;29;20534;-83
2022/10/22 04:02:32;;;;;;;7.13;6.13;;;16.20;99.90;;;;;;4943191;29;20474;-84
2022/10/22 04:05:04;;;;;;;8.13;5.60;;;16.20;99.90;;;;;;4931825;29;20469;-85
2022/10/22 04:07:34;;;;;;;6.10;5.13;;;16.10;99.90;;;;;;4931412;29;20491;-83
2022/10/22 04:10:03;;;;;;;8.77;5.27;;;16.20;99.90;;;;;;4913039;29;20483;-85
2022/10/22 04:12:30;;;;;;;8.63;5.67;;;16.20;99.90;;;;;;4925116;29;20467;-84
2022/10/22 04:14:58;;;;;;;8.60;5.97;;;16.10;99.90;;;;;;4924113;29;20490;-84
2022/10/22 04:17:25;;;;;;;6.10;5.47;;;16.00;99.90;;;;;;4923071;29;20497;-84
2022/10/22 04:19:55;;;;;;;6.70;6.00;;;16.00;99.90;;;;;;4931019;29;20439;-84
2022/10/22 04:22:27;;;;;;;5.60;5.00;;;15.90;99.90;;;;;;4934649;29;20458;-84
2022/10/22 04:25:00;;;;;;;5.97;4.80;;;15.90;99.90;;;;;;4932455;29;20486;-83
2022/10/22 04:27:36;;;;;;;6.87;4.80;;;15.90;99.90;;;;;;4922134;29;20490;-85
2022/10/22 04:30:07;;;;;;;8.20;4.80;;;16.00;99.90;;;;;;4935844;29;20475;-83
2022/10/22 04:32:39;;;;;;;7.97;5.10;;;15.90;99.90;;;;;;4920277;29;20459;-83
2022/10/22 04:35:08;;;;;;;5.80;5.30;;;15.90;99.90;;;;;;4918796;29;20514;-83
2022/10/22 04:37:46;;;;;;;5.80;5.20;;;15.90;99.90;;;;;;4917023;29;20474;-84
2022/10/22 04:40:30;;;;;;;9.63;5.60;;;16.00;99.90;;;;;;4926206;28;20514;-83
2022/10/22 04:43:19;;;;;;;7.20;4.87;;;15.90;99.90;;;;;;4916829;29;20451;-83
2022/10/22 04:45:54;;;;;;;8.43;5.27;;;15.70;99.90;;;;;;4916815;29;20438;-84
2022/10/22 04:48:21;;;;;;;5.90;4.50;;;15.90;99.90;;;;;;4917018;29;20980;-82
2022/10/22 04:50:56;;;;;;;5.40;4.90;;;15.90;99.90;;;;;;4916379;29;20467;-83
2022/10/22 04:53:26;;;;;;;7.40;4.60;;;15.70;99.90;;;;;;4913183;29;20525;-84
2022/10/22 04:56:18;;;;;;;6.20;4.93;;;15.60;99.90;;;;;;4914250;29;20487;-83
2022/10/22 04:58:54;;;;;;;8.83;5.60;;;15.60;99.90;;;;;;4915727;29;20487;-84
2022/10/22 05:01:23;;;;;;;8.13;4.87;;;15.50;99.90;;;;;;4915753;29;20531;-83
2022/10/22 05:04:02;;;;;;;5.40;4.50;;;15.40;99.90;;;;;;4911969;29;20996;-84
2022/10/22 05:07:05;;;;;;;6.70;5.10;;;15.60;99.90;;;;;;4912208;29;20438;-83
2022/10/22 05:09:42;;;;;;;5.90;5.03;;;15.60;99.90;;;;;;4912021;29;20474;-83
2022/10/22 05:12:31;;;;;;;5.40;4.80;;;15.60;99.90;;;;;;4898161;29;20470;-84
2022/10/22 05:15:15;;;;;;;6.23;5.40;;;15.70;99.90;;;;;;4925529;29;20486;-81
2022/10/22 05:17:45;;;;;;;7.83;5.70;;;15.80;99.90;;;;;;4912777;29;20478;-84
2022/10/22 05:20:26;;;;;;;9.37;5.03;;;15.70;99.90;;;;;;4912781;29;20482;-83
2022/10/22 05:22:54;;;;;;;6.20;5.67;;;15.60;99.90;;;;;;4925376;29;20462;-84
2022/10/22 05:25:38;;;;;;;6.07;5.27;;;15.80;99.90;;;;;;4913349;29;20450;-85
2022/10/22 05:28:05;;;;;;;5.80;5.30;;;15.80;99.90;;;;;;4908638;29;20484;-82
2022/10/22 05:30:32;;;;;;;7.20;6.50;;;15.70;99.90;;;;;;4910376;29;20967;-82
2022/10/22 05:33:08;;;;;;;10.13;5.80;;;15.60;99.90;;;;;;4915710;29;20449;-85
2022/10/22 05:35:43;;;;;;;5.97;5.37;;;15.60;99.90;;;;;;4937585;29;20505;-83
2022/10/22 05:38:19;;;;;;;5.57;4.90;;;15.60;99.90;;;;;;4929214;29;20482;-83
2022/10/22 05:41:03;;;;;;;8.33;5.40;;;15.70;99.90;;;;;;4914251;29;20466;-84
2022/10/22 05:43:35;;;;;;;7.60;5.43;;;15.70;99.90;;;;;;4912127;29;20495;-83
2022/10/22 05:46:21;;;;;;;6.67;6.07;;;15.70;99.90;;;;;;4913033;29;20512;-84
2022/10/22 05:49:02;;;;;;;6.50;5.87;;;15.60;99.90;;;;;;4912565;29;20570;-84
2022/10/22 05:51:40;;;;;;;5.80;5.20;;;15.70;99.90;;;;;;4910515;29;20462;-84
2022/10/22 05:54:23;;;;;;;5.73;5.17;;;15.80;99.90;;;;;;4914776;29;20482;-82
2022/10/22 05:56:57;;;;;;;8.10;5.60;;;15.70;99.90;;;;;;4910892;29;20455;-84
2022/10/22 05:59:30;;;;;;;5.60;4.80;;;15.70;99.90;;;;;;4925080;29;20497;-84
2022/10/22 06:02:03;;;;;;;6.17;5.10;;;15.70;99.90;;;;;;4911023;29;21079;-85
2022/10/22 06:04:41;;;;;;;7.63;6.33;;;15.70;99.90;;;;;;4910756;29;20458;-86
2022/10/22 06:07:22;;;;;;;6.53;5.77;;;15.70;99.90;;;;;;4909073;29;20470;-84
2022/10/22 06:10:06;;;;;;;6.03;5.53;;;15.70;99.90;;;;;;4924475;29;20474;-83
2022/10/22 06:12:48;;;;;;;6.63;5.70;;;15.70;99.90;;;;;;4908775;29;20530;-84
2022/10/22 06:15:17;;;;;;;9.90;5.77;;;15.70;99.90;;;;;;4924745;29;20962;-83
2022/10/22 06:17:47;;;;;;;8.80;7.10;;;15.70;99.90;;;;;;4912964;29;20582;-83
2022/10/22 06:20:18;;;;;;;6.17;5.53;;;15.70;99.90;;;;;;4910684;29;20551;-85
2022/10/22 06:22:47;;;;;;;5.87;5.30;;;15.70;99.90;;;;;;4910296;29;20506;-83
2022/10/22 06:25:17;;;;;;;8.90;5.97;;;15.70;99.90;;;;;;4925072;29;20501;-82
2022/10/22 06:27:50;;;;;;;11.27;5.93;;;15.70;99.90;;;;;;4923181;29;20483;-82
2022/10/22 06:30:28;;;;;;;6.33;5.73;;;15.70;99.90;;;;;;4925050;29;20937;-84
2022/10/22 06:33:01;;;;;;;9.50;6.13;;;15.70;99.90;;;;;;4913101;29;20969;-84
2022/10/22 06:35:35;;;;;;;9.70;5.83;;;15.70;99.90;;;;;;4910955;29;21035;-85
2022/10/22 06:38:05;;;;;;;11.07;6.80;;;15.80;99.90;;;;;;4912076;29;20479;-83
2022/10/22 06:40:48;;;;;;;6.93;6.20;;;15.90;99.90;;;;;;4912293;29;21269;-83
2022/10/22 06:43:33;;;;;;;8.10;6.23;;;15.80;99.90;;;;;;4913459;29;20546;-85
2022/10/22 06:46:10;;;;;;;6.77;5.47;;;15.90;99.90;;;;;;4911095;29;20470;-84
2022/10/22 06:48:55;;;;;;;5.80;5.20;;;15.90;99.90;;;;;;4928314;29;20482;-82
2022/10/22 06:51:57;;;;;;;8.40;6.60;;;15.90;99.90;;;;;;4925659;29;20434;-83
2022/10/22 06:54:45;;;;;;;5.70;5.10;;;15.80;99.90;;;;;;4929892;29;20610;-84
2022/10/22 06:57:18;;;;;;;7.83;5.30;;;15.80;99.90;;;;;;4913141;29;20471;-82
2022/10/22 07:00:05;;;;;;;6.77;5.83;;;16.00;99.90;;;;;;4905632;29;21053;-82
2022/10/22 07:02:51;;;;;;;6.83;5.70;;;16.00;99.90;;;;;;4906856;29;20467;-83
2022/10/22 07:05:35;;;;;;;6.13;5.17;;;16.00;99.90;;;;;;4911572;29;20486;-83
2022/10/22 07:08:10;;;;;;;6.20;5.60;;;15.90;99.90;;;;;;4911652;29;20500;-83
2022/10/22 07:10:50;;;;;;;6.10;5.50;;;16.00;99.90;;;;;;4925568;28;21009;-84
2022/10/22 07:13:26;;;;;;;5.87;5.37;;;16.00;99.90;;;;;;4909261;29;20462;-84
2022/10/22 07:16:09;;;;;;;5.70;5.10;;;16.10;99.90;;;;;;4909761;29;20518;-83
2022/10/22 07:18:57;;;;;;;10.53;5.40;;;16.20;99.90;;;;;;4893853;29;20478;-84
2022/10/22 07:21:36;;;;;;;6.83;6.23;;;16.10;99.90;;;;;;4907720;29;20471;-84
2022/10/22 07:24:12;;;;;;;6.50;5.20;;;16.20;99.90;;;;;;4908511;29;20462;-83
2022/10/22 07:26:51;;;;;;;6.20;5.47;;;16.20;99.90;;;;;;4907992;29;21543;-84
2022/10/22 07:29:23;;;;;;;8.80;5.53;;;16.30;99.90;;;;;;4905567;29;20479;-84
2022/10/22 07:31:58;;;;;;;7.87;4.93;;;17.00;99.90;;;;;;4908789;29;20470;-84
2022/10/22 07:34:27;;;;;;;5.47;4.97;;;18.00;99.90;;;;;;4910431;29;20463;-84
2022/10/22 07:37:04;;;;;;;5.00;4.53;;;18.70;99.90;;;;;;4908331;29;20523;-81
2022/10/22 07:39:35;;;;;;;6.50;4.63;;;19.20;99.90;;;;;;4910008;29;20466;-84
2022/10/22 07:42:28;;;;;;;7.10;4.20;;;19.60;99.90;;;;;;4913672;29;20750;-83
2022/10/22 07:45:17;;;;;;;6.33;4.00;;;19.50;99.90;;;;;;4912329;29;20557;-84
2022/10/22 07:48:06;;;;;;;7.10;4.13;;;18.80;99.90;;;;;;4912684;29;20490;-82
2022/10/22 07:51:17;;;;;;;7.00;5.27;;;18.40;99.90;;;;;;4922190;29;20539;-83
2022/10/22 07:54:12;;;;;;;7.53;3.70;;;18.20;99.90;;;;;;4928536;29;20533;-84
2022/10/22 07:57:41;;;;;;;5.47;3.43;;;18.10;99.90;;;;;;4855729;29;20476;-82
2022/10/22 08:01:04;;;;;;;3.97;3.57;;;18.10;99.90;;;;;;4852364;29;20465;-85
2022/10/22 08:03:52;;;;;;;4.90;2.90;;;18.00;99.90;;;;;;4849566;29;20465;-83
2022/10/22 08:06:40;;;;;;;6.13;2.73;;;18.00;99.90;;;;;;4813546;29;20554;-84
2022/10/22 08:09:28;;;;;;;3.77;2.70;;;17.90;99.90;;;;;;4830462;29;20496;-83
2022/10/22 08:12:19;;;;;;;6.87;2.87;;;17.80;99.90;;;;;;4834797;29;20465;-84
2022/10/22 08:15:06;;;;;;;4.00;2.60;;;17.90;99.90;;;;;;4848700;29;20488;-83
2022/10/22 08:17:49;;;;;;;2.83;2.50;;;18.00;99.90;;;;;;4838339;29;20574;-84
2022/10/22 08:20:45;;;;;;;2.80;1.90;;;18.00;99.90;;;;;;4848720;29;20434;-81
2022/10/22 08:23:43;;;;;;;2.37;2.17;;;17.90;99.90;;;;;;4859100;29;20461;-85
2022/10/22 08:26:13;;;;;;;7.23;2.70;;;17.90;99.90;;;;;;4858522;29;20455;-84
2022/10/22 08:29:03;;;;;;;4.33;2.50;;;17.90;99.90;;;;;;4831172;29;20507;-83
2022/10/22 08:31:41;;;;;;;3.80;2.20;;;17.60;99.90;;;;;;4853219;29;20465;-84
2022/10/22 08:34:29;;;;;;;3.57;2.27;;;17.50;99.90;;;;;;4896206;29;20545;-82
2022/10/22 08:37:13;;;;;;;7.63;2.50;;;17.50;99.90;;;;;;4933289;29;20470;-82
2022/10/22 08:40:33;;;;;;;6.17;2.50;;;17.50;99.90;;;;;;4913681;29;20462;-84
2022/10/22 08:43:26;;;;;;;5.00;2.40;;;17.50;99.90;;;;;;4800769;29;20471;-82
2022/10/22 08:46:45;;;;;;;;;;;;;;;;;;;;;
2022/10/22 08:49:48;;;;;;;4.30;2.53;;;17.60;99.90;;;;;;4903655;29;20494;-80
2022/10/22 08:52:53;;;;;;;2.13;1.93;;;17.70;99.90;;;;;;4907757;29;20558;-84
2022/10/22 08:55:39;;;;;;;4.80;2.43;;;17.70;99.90;;;;;;4904492;29;20483;-82
2022/10/22 08:58:39;;;;;;;5.30;2.30;;;17.60;99.90;;;;;;4905822;29;20796;-82
2022/10/22 09:01:35;;;;;;;7.00;3.17;;;17.80;99.90;;;;;;4904098;29;20463;-84
2022/10/22 09:04:40;;;;;;;3.23;1.93;;;17.80;99.90;;;;;;4910716;29;20459;-84
2022/10/22 09:07:29;;;;;;;8.30;2.80;;;17.70;99.90;;;;;;4912148;29;20466;-84
2022/10/22 09:10:14;;;;;;;3.90;2.10;;;17.90;99.90;;;;;;4922404;29;20498;-83
2022/10/22 09:12:50;;;;;;;3.40;2.60;;;18.00;99.90;;;;;;4918410;29;20824;-84
2022/10/22 09:15:33;;;;;;;3.40;2.17;;;17.90;99.90;;;;;;4919112;29;20497;-85
2022/10/22 09:18:24;;;;;;;5.80;2.43;;;17.90;99.90;;;;;;4923845;29;20489;-85
2022/10/22 09:21:29;;;;;;;4.70;2.03;;;17.90;99.90;;;;;;4937764;29;20466;-83
2022/10/22 09:27:51;;;;;;;2.03;1.50;;;18.00;99.90;;;;;;4916663;29;20459;-83
2022/10/22 09:36:40;;;;;;;3.07;2.07;;;17.90;99.90;;;;;;4949356;28;20488;-83
2022/10/22 09:39:56;;;;;;;3.60;2.13;;;18.00;99.90;;;;;;4950222;28;20876;-85
2022/10/22 09:42:42;;;;;;;5.50;1.77;;;18.10;99.90;;;;;;4933247;29;20469;-83
2022/10/22 09:45:27;;;;;;;3.30;1.90;;;18.10;99.90;;;;;;4939883;29;20437;-84
2022/10/22 09:48:30;;;;;;;4.00;1.77;;;17.90;99.90;;;;;;4937033;29;20514;-85
2022/10/22 09:51:24;;;;;;;5.10;3.70;;;18.00;99.90;;;;;;4936118;29;20525;-83
2022/10/22 09:54:11;;;;;;;3.37;2.20;;;18.00;99.90;;;;;;4935372;29;20474;-83
2022/10/22 09:56:41;;;;;;;2.57;1.80;;;18.00;99.90;;;;;;4935630;29;20483;-84
2022/10/22 09:59:22;;;;;;;5.23;1.80;;;18.10;99.90;;;;;;4931015;29;20485;-85
2022/10/22 10:02:20;;;;;;;4.27;1.80;;;18.30;99.90;;;;;;4934043;29;20467;-84
2022/10/22 10:05:06;;;;;;;5.27;2.30;;;18.30;99.90;;;;;;4931036;28;21153;-84
2022/10/22 10:07:41;;;;;;;4.87;2.23;;;18.30;99.90;;;;;;4942378;29;21305;-82
2022/10/22 10:10:41;;;;;;;5.83;2.30;;;18.30;99.90;;;;;;4943565;28;20458;-84
2022/10/22 10:13:53;;;;;;;7.67;2.10;;;18.30;99.90;;;;;;4923514;28;20540;-85
2022/10/22 10:16:52;;;;;;;5.43;2.47;;;18.20;99.90;;;;;;4927876;29;20862;-84
2022/10/22 10:19:39;;;;;;;5.47;2.20;;;18.40;99.90;;;;;;4940430;28;21985;-84
2022/10/22 10:22:26;;;;;;;3.60;1.70;;;18.50;99.90;;;;;;4928565;29;21181;-84
2022/10/22 10:25:30;;;;;;;3.23;2.10;;;18.60;99.90;;;;;;4929256;28;20482;-85
2022/10/22 10:28:44;;;;;;;7.33;2.00;;;18.30;99.90;;;;;;4928094;29;20462;-84
2022/10/22 10:32:07;;;;;;;1.70;1.40;;;17.90;99.90;;;;;;4902841;29;20473;-84
2022/10/22 10:35:23;;;;;;;2.97;1.60;;;17.60;99.90;;;;;;4908791;29;20490;-83
2022/10/22 10:41:37;;;;;;;3.13;1.40;;;18.10;99.90;;;;;;4926341;29;20496;-84
2022/10/22 10:45:05;;;;;;;;;;;;;;;;;;;;;
2022/10/22 10:48:03;;;;;;;4.63;1.20;;;17.80;99.90;;;;;;4928578;28;20826;-82
2022/10/22 10:51:20;;;;;;;4.00;3.63;;;17.70;99.90;;;;;;4942089;28;20486;-84
2022/10/22 10:54:35;;;;;;;2.40;1.70;;;17.80;99.90;;;;;;4941576;28;20513;-83
2022/10/22 10:57:13;;;;;;;2.20;0.90;;;17.80;99.90;;;;;;4926977;29;20486;-85
2022/10/22 11:00:19;;;;;;;;;;;;;;;;;;;;;
2022/10/22 11:43:00;;;;;;;4.85;1.65;;;17.70;99.90;;;;;;6160995;22;3004076;-82
2022/10/22 11:46:46;;;;;;;4.80;2.00;;;18.10;99.90;;;;;;6308984;22;20238;-85
2022/10/22 11:50:24;;;;;;;1.40;0.87;;;18.00;99.90;;;;;;6183965;23;20412;-82
2022/10/22 11:53:37;;;;;;;2.47;1.30;;;18.20;99.90;;;;;;6164086;23;20479;-84
2022/10/22 11:56:38;;;;;;;4.23;1.40;;;18.00;99.90;;;;;;6200454;22;20428;-83
2022/10/22 11:59:40;;;;;;;4.57;1.60;;;17.90;99.90;;;;;;6311476;22;20499;-83
2022/10/22 12:02:46;;;;;;;3.43;1.43;;;17.80;99.90;;;;;;6285011;22;20413;-83
2022/10/22 12:05:33;;;;;;;1.43;1.00;;;17.90;99.90;;;;;;6249740;22;20472;-85
2022/10/22 12:08:19;;;;;;;2.63;1.27;;;17.90;99.90;;;;;;6289773;22;20435;-84
2022/10/22 12:10:53;;;;;;;1.47;1.17;;;18.10;99.90;;;;;;6287845;22;20509;-84
2022/10/22 12:13:51;;;;;;;2.60;1.07;;;18.40;99.70;;;;;;6293869;22;20417;-84
2022/10/22 12:16:25;;;;;;;1.87;1.23;;;18.20;99.90;;;;;;6312735;22;20417;-83
2022/10/22 12:19:09;;;;;;;2.23;1.30;;;18.20;99.90;;;;;;6290436;22;20414;-84
2022/10/22 12:21:40;;;;;;;2.40;1.40;;;18.10;99.90;;;;;;6285615;22;20500;-84
2022/10/22 12:24:15;;;;;;;2.63;1.30;;;18.00;99.90;;;;;;6256674;22;20403;-85
2022/10/22 12:26:56;;;;;;;2.10;1.20;;;18.00;99.90;;;;;;6283359;22;20453;-84
2022/10/22 12:29:36;;;;;;;4.07;1.13;;;18.20;99.90;;;;;;6283815;22;20498;-84
2022/10/22 12:32:15;;;;;;;3.00;1.30;;;18.40;99.90;;;;;;6277678;22;20461;-86
2022/10/22 12:35:07;;;;;;;2.60;1.07;;;18.50;99.80;;;;;;6296742;22;20405;-85
2022/10/22 12:37:51;;;;;;;3.50;1.27;;;18.70;99.30;;;;;;6298105;22;20422;-85
2022/10/22 12:40:40;;;;;;;2.50;1.40;;;18.90;99.20;;;;;;6250019;22;20536;-84
2022/10/22 12:43:28;;;;;;;1.80;1.00;;;18.90;98.60;;;;;;6215931;23;20444;-84
2022/10/22 12:46:02;;;;;;;1.20;1.03;;;18.70;99.00;;;;;;6216036;23;20407;-85
2022/10/22 12:48:49;;;;;;;2.10;1.20;;;19.20;98.40;;;;;;6217630;23;20428;-83
2022/10/22 12:51:22;;;;;;;2.73;0.90;;;19.50;97.40;;;;;;6241952;23;20428;-85
2022/10/22 12:54:10;;;;;;;2.60;0.80;;;19.50;97.40;;;;;;6218370;23;21166;-83
2022/10/22 12:57:01;;;;;;;7.40;3.23;;;19.50;97.10;;;;;;6221867;23;20520;-86
2022/10/22 12:59:36;;;;;;;1.20;0.90;;;19.40;96.90;;;;;;6245408;23;20432;-85
2022/10/22 13:02:16;;;;;;;1.47;0.70;;;19.70;96.40;;;;;;6245380;23;20416;-84
2022/10/22 13:05:26;;;;;;;2.33;1.40;;;19.40;96.70;;;;;;6215014;23;20431;-83
2022/10/22 13:08:15;;;;;;;1.63;1.10;;;19.10;97.40;;;;;;6217773;23;20963;-82
2022/10/22 13:10:50;;;;;;;1.80;0.80;;;19.20;97.20;;;;;;6243124;23;20436;-83
2022/10/22 13:13:33;;;;;;;1.30;0.73;;;19.80;96.20;;;;;;6215975;23;20941;-84
2022/10/22 13:16:20;;;;;;;1.43;0.80;;;20.10;95.10;;;;;;6214668;23;20467;-85
2022/10/22 13:18:56;;;;;;;1.67;0.93;;;19.70;95.00;;;;;;6238760;23;20430;-85
2022/10/22 13:21:56;;;;;;;2.17;0.70;;;19.30;95.90;;;;;;6217243;23;20424;-84
2022/10/22 13:24:47;;;;;;;1.90;1.20;;;19.20;96.10;;;;;;6239657;23;20415;-85
2022/10/22 13:27:32;;;;;;;6.43;3.97;;;19.30;96.10;;;;;;6215214;23;20426;-85
2022/10/22 13:30:08;;;;;;;4.87;1.10;;;19.20;96.40;;;;;;6235744;23;20416;-85
2022/10/22 13:32:56;;;;;;;0.90;0.80;;;19.30;96.20;;;;;;6240569;23;20416;-84
2022/10/22 13:35:38;;;;;;;1.80;0.70;;;19.20;96.20;;;;;;6237703;23;20408;-85
2022/10/22 13:38:30;;;;;;;1.83;1.07;;;19.10;96.40;;;;;;6213257;23;20451;-84
2022/10/22 13:41:03;;;;;;;2.77;0.70;;;19.20;96.60;;;;;;6245577;22;20407;-82
2022/10/22 13:43:35;;;;;;;0.93;0.70;;;19.30;96.70;;;;;;6285331;22;20403;-83
2022/10/22 13:46:26;;;;;;;2.13;0.97;;;19.70;95.60;;;;;;6271368;22;20411;-84
2022/10/22 13:49:08;;;;;;;1.60;0.80;;;19.70;95.60;;;;;;6239636;22;20471;-83
2022/10/22 13:51:46;;;;;;;4.80;0.90;;;19.60;95.70;;;;;;6290752;22;20843;-84
2022/10/22 13:54:22;;;;;;;1.90;1.13;;;20.00;95.00;;;;;;6266195;22;20441;-85
2022/10/22 13:57:01;;;;;;;4.43;2.60;;;20.00;94.80;;;;;;6286033;22;20439;-84
2022/10/22 13:59:42;;;;;;;3.10;1.97;;;19.60;95.40;;;;;;6241114;22;20429;-85
2022/10/22 14:02:18;;;;;;;3.50;0.93;;;19.40;96.10;;;;;;6249130;22;20407;-83
2022/10/22 14:05:08;;;;;;;5.13;3.13;;;19.30;96.20;;;;;;6275449;22;20580;-83
2022/10/22 14:07:46;;;;;;;2.70;0.80;;;19.10;96.50;;;;;;6247806;22;20434;-83
2022/10/22 14:10:24;;;;;;;3.60;0.97;;;19.20;96.90;;;;;;6273748;22;20395;-83
2022/10/22 14:12:57;;;;;;;1.77;0.90;;;20.00;96.20;;;;;;6271835;22;20403;-85
2022/10/22 14:15:28;;;;;;;1.80;1.63;;;20.20;95.00;;;;;;6273370;22;20402;-84
2022/10/22 14:18:05;;;;;;;2.43;1.10;;;19.90;95.40;;;;;;6268663;22;20442;-84
2022/10/22 14:20:42;;;;;;;2.20;0.60;;;19.70;95.80;;;;;;6271587;22;20399;-83
2022/10/22 14:23:35;;;;;;;3.20;1.17;;;19.50;96.00;;;;;;6268889;22;20407;-84
2022/10/22 14:26:06;;;;;;;3.20;1.20;;;19.40;96.50;;;;;;6268466;22;20894;-82
2022/10/22 14:28:37;;;;;;;1.87;1.30;;;19.80;96.30;;;;;;6266440;22;20423;-82
2022/10/22 14:31:49;;;;;;;2.13;1.07;;;19.60;96.20;;;;;;6266629;22;20443;-84
2022/10/22 14:34:25;;;;;;;2.93;0.90;;;19.50;96.60;;;;;;6225261;22;20415;-83
2022/10/22 14:37:25;;;;;;;3.23;0.87;;;19.60;96.60;;;;;;6269364;22;20449;-83
2022/10/22 14:40:01;;;;;;;1.93;0.93;;;19.50;96.50;;;;;;6273382;22;20407;-85
2022/10/22 14:42:43;;;;;;;2.27;1.40;;;19.70;96.30;;;;;;6268437;22;20469;-84
2022/10/22 14:45:40;;;;;;;1.20;1.00;;;19.70;96.30;;;;;;6266814;22;20904;-85
2022/10/22 14:48:35;;;;;;;5.57;2.83;;;19.70;96.30;;;;;;6267051;22;20443;-84
2022/10/22 14:51:17;;;;;;;1.83;1.00;;;19.60;96.40;;;;;;6243016;22;20446;-83
2022/10/22 14:54:01;;;;;;;3.40;1.93;;;19.60;96.70;;;;;;6267019;22;20494;-84
2022/10/22 14:56:44;;;;;;;2.60;1.60;;;19.50;96.60;;;;;;6264010;22;20475;-83
2022/10/22 14:59:14;;;;;;;2.17;1.70;;;19.50;96.60;;;;;;6260316;22;20450;-83
2022/10/22 15:02:09;;;;;;;3.90;1.27;;;19.60;96.80;;;;;;6241103;22;20731;-85
2022/10/22 15:04:54;;;;;;;3.10;1.20;;;19.70;96.20;;;;;;6240504;22;20526;-85
2022/10/22 15:07:46;;;;;;;2.27;1.37;;;19.60;96.40;;;;;;6242574;22;20430;-82